createdAt,value
2023-06-04T00:00:29.816Z,15.10
2023-06-04T00:02:57.239Z,15.10
2023-06-04T00:05:26.717Z,15.10
2023-06-04T00:07:54.550Z,15.10
2023-06-04T00:10:21.936Z,15.10
2023-06-04T00:12:49.837Z,15.10
2023-06-04T00:15:20.162Z,15.10
2023-06-04T00:17:47.643Z,15.10
2023-06-04T00:20:15.248Z,15.10
2023-06-04T00:22:43.052Z,15.10
2023-06-04T00:25:11.326Z,15.10
2023-06-04T00:27:39.030Z,15.10
2023-06-04T00:30:08.160Z,15.10
2023-06-04T00:32:35.766Z,15.10
2023-06-04T00:35:03.275Z,15.10
2023-06-04T00:37:31.082Z,15.10
2023-06-04T00:39:58.620Z,15.10
2023-06-04T00:42:26.116Z,15.10
2023-06-04T00:44:53.485Z,15.00
2023-06-04T00:47:22.130Z,15.00
2023-06-04T00:49:50.111Z,15.00
2023-06-04T00:52:17.801Z,15.00
2023-06-04T00:54:45.189Z,15.00
2023-06-04T00:57:12.721Z,15.00
2023-06-04T00:59:42.817Z,15.00
2023-06-04T01:02:13.560Z,15.00
2023-06-04T01:05:00.227Z,15.00
2023-06-04T01:07:29.924Z,15.00
2023-06-04T01:09:57.961Z,14.90
2023-06-04T01:12:25.440Z,14.90
2023-06-04T01:14:52.928Z,14.90
2023-06-04T01:18:04.215Z,14.90
2023-06-04T01:20:41.981Z,14.90
2023-06-04T01:23:35.550Z,14.80
2023-06-04T01:26:06.923Z,14.80
2023-06-04T01:28:36.149Z,14.80
2023-06-04T01:31:05.833Z,14.70
2023-06-04T01:33:33.638Z,14.70
2023-06-04T01:36:02.173Z,14.70
2023-06-04T01:38:29.636Z,14.60
2023-06-04T01:41:02.389Z,14.60
2023-06-04T01:43:30.428Z,14.50
2023-06-04T01:45:57.934Z,14.50
2023-06-04T01:48:25.329Z,14.40
2023-06-04T01:50:52.623Z,14.30
2023-06-04T01:53:20.062Z,14.30
2023-06-04T01:55:50.524Z,14.30
2023-06-04T01:58:24.324Z,14.20
2023-06-04T02:00:54.206Z,14.20
2023-06-04T02:03:23.187Z,14.10
2023-06-04T02:05:51.205Z,14.10
2023-06-04T02:08:22.122Z,14.10
2023-06-04T02:10:50.319Z,14.00
2023-06-04T02:13:17.844Z,14.00
2023-06-04T02:15:45.477Z,14.00
2023-06-04T02:18:22.367Z,13.90
2023-06-04T02:20:50.846Z,13.90
2023-06-04T02:23:19.813Z,13.90
2023-06-04T02:25:49.052Z,13.90
2023-06-04T02:28:17.026Z,13.80
2023-06-04T02:30:46.437Z,13.80
2023-06-04T02:33:14.991Z,13.70
2023-06-04T02:35:42.658Z,13.70
2023-06-04T02:38:10.132Z,13.70
2023-06-04T02:40:37.409Z,13.60
2023-06-04T02:43:04.780Z,13.60
2023-06-04T02:45:32.182Z,13.60
2023-06-04T02:47:59.845Z,13.60
2023-06-04T02:50:27.367Z,13.60
2023-06-04T02:52:54.811Z,13.60
2023-06-04T02:55:22.334Z,13.60
2023-06-04T02:57:53.175Z,13.60
2023-06-04T03:00:20.683Z,13.60
2023-06-04T03:02:50.022Z,13.60
2023-06-04T03:05:19.551Z,13.60
2023-06-04T03:07:48.435Z,13.60
2023-06-04T03:10:17.201Z,13.60
2023-06-04T03:12:45.035Z,13.60
2023-06-04T03:15:12.926Z,13.60
2023-06-04T03:17:40.462Z,13.50
2023-06-04T03:20:08.808Z,13.60
2023-06-04T03:22:37.207Z,13.60
2023-06-04T03:25:05.593Z,13.60
2023-06-04T03:27:34.486Z,13.60
2023-06-04T03:30:02.657Z,13.60
2023-06-04T03:32:38.201Z,13.60
2023-06-04T03:35:06.269Z,13.60
2023-06-04T03:37:34.108Z,13.70
2023-06-04T03:40:03.621Z,13.70
2023-06-04T03:42:31.700Z,13.70
2023-06-04T03:45:00.755Z,13.70
2023-06-04T03:47:29.917Z,13.80
2023-06-04T03:49:57.492Z,13.80
2023-06-04T03:52:25.998Z,13.90
2023-06-04T03:54:53.394Z,13.90
2023-06-04T03:57:20.832Z,13.90
2023-06-04T03:59:48.325Z,14.00
2023-06-04T04:02:16.388Z,14.10
2023-06-04T04:04:43.768Z,14.10
2023-06-04T04:07:11.864Z,14.10
2023-06-04T04:09:39.794Z,14.20
2023-06-04T04:12:07.418Z,14.20
2023-06-04T04:14:36.111Z,14.30
2023-06-04T04:17:05.391Z,14.30
2023-06-04T04:19:33.046Z,14.40
2023-06-04T04:22:01.142Z,14.40
2023-06-04T04:24:29.296Z,14.50
2023-06-04T04:27:04.706Z,14.50
2023-06-04T04:29:36.265Z,14.60
2023-06-04T04:32:11.954Z,14.60
2023-06-04T04:34:55.737Z,14.60
2023-06-04T04:37:32.560Z,14.70
2023-06-04T04:40:00.613Z,14.80
2023-06-04T04:42:31.962Z,14.80
2023-06-04T04:45:00.490Z,14.90
2023-06-04T04:47:28.823Z,14.90
2023-06-04T04:49:56.504Z,15.00
2023-06-04T04:52:23.813Z,15.00
2023-06-04T04:54:51.155Z,15.10
2023-06-04T04:57:18.519Z,15.10
2023-06-04T04:59:49.571Z,15.20
2023-06-04T05:02:17.147Z,15.20
2023-06-04T05:04:45.282Z,15.20
2023-06-04T05:07:14.376Z,15.30
2023-06-04T05:09:42.033Z,15.30
2023-06-04T05:12:10.083Z,15.40
2023-06-04T05:14:38.885Z,15.40
2023-06-04T05:17:07.768Z,15.50
2023-06-04T05:19:36.394Z,15.50
2023-06-04T05:22:04.161Z,15.60
2023-06-04T05:24:32.916Z,15.70
2023-06-04T05:27:04.844Z,15.70
2023-06-04T05:29:32.441Z,15.80
2023-06-04T05:31:59.958Z,15.80
2023-06-04T05:34:27.947Z,15.80
2023-06-04T05:36:57.782Z,15.90
2023-06-04T05:39:25.981Z,15.90
2023-06-04T05:42:07.459Z,16.00
2023-06-04T05:44:35.345Z,16.00
2023-06-04T05:47:02.841Z,16.00
2023-06-04T05:49:31.837Z,16.10
2023-06-04T05:52:00.836Z,16.10
2023-06-04T05:54:31.305Z,16.10
2023-06-04T05:56:59.417Z,16.20
2023-06-04T05:59:26.887Z,16.20
2023-06-04T06:01:54.530Z,16.30
2023-06-04T06:04:22.186Z,16.30
2023-06-04T06:06:49.970Z,16.30
2023-06-04T06:09:17.892Z,16.40
2023-06-04T06:11:45.263Z,16.40
2023-06-04T06:14:12.894Z,16.50
2023-06-04T06:16:41.528Z,16.50
2023-06-04T06:19:08.920Z,16.60
2023-06-04T06:21:37.376Z,16.60
2023-06-04T06:24:05.532Z,16.60
2023-06-04T06:26:34.086Z,16.70
2023-06-04T06:29:02.926Z,16.70
2023-06-04T06:31:31.715Z,16.70
2023-06-04T06:33:59.080Z,16.70
2023-06-04T06:36:27.746Z,16.70
2023-06-04T06:38:55.188Z,16.70
2023-06-04T06:41:22.594Z,16.80
2023-06-04T06:43:49.864Z,16.80
2023-06-04T06:46:17.107Z,16.80
2023-06-04T06:48:46.664Z,16.90
2023-06-04T06:51:14.205Z,16.90
2023-06-04T06:53:41.704Z,17.00
2023-06-04T06:56:09.183Z,17.00
2023-06-04T06:58:36.854Z,17.00
2023-06-04T07:01:04.585Z,17.10
2023-06-04T07:03:32.537Z,17.10
2023-06-04T07:06:00.046Z,17.20
2023-06-04T07:08:27.344Z,17.20
2023-06-04T07:10:54.696Z,17.20
2023-06-04T07:13:22.042Z,17.30
2023-06-04T07:15:49.378Z,17.30
2023-06-04T07:18:16.758Z,17.30
2023-06-04T07:20:44.157Z,17.40
2023-06-04T07:23:11.696Z,17.40
2023-06-04T07:25:39.009Z,17.40
2023-06-04T07:28:06.451Z,17.50
2023-06-04T07:30:33.776Z,17.50
2023-06-04T07:33:01.164Z,17.50
2023-06-04T07:35:28.535Z,17.60
2023-06-04T07:37:56.004Z,17.60
2023-06-04T07:40:23.370Z,17.70
2023-06-04T07:42:50.603Z,17.70
2023-06-04T07:45:18.134Z,17.70
2023-06-04T07:47:45.594Z,17.80
2023-06-04T07:50:13.113Z,17.80
2023-06-04T07:52:40.374Z,17.90
2023-06-04T07:55:09.673Z,17.90
2023-06-04T07:57:37.441Z,17.90
2023-06-04T08:00:08.856Z,18.00
2023-06-04T08:02:42.117Z,18.00
2023-06-04T08:05:09.845Z,18.00
2023-06-04T08:07:37.247Z,18.00
2023-06-04T08:10:04.807Z,18.00
2023-06-04T08:12:32.173Z,18.10
2023-06-04T08:14:59.519Z,18.10
2023-06-04T08:17:26.971Z,18.20
2023-06-04T08:19:55.017Z,18.20
2023-06-04T08:22:22.377Z,18.20
2023-06-04T08:24:49.658Z,18.20
2023-06-04T08:27:18.936Z,18.20
2023-06-04T08:29:46.432Z,18.30
2023-06-04T08:32:13.722Z,18.30
2023-06-04T08:34:41.531Z,18.30
2023-06-04T08:37:09.785Z,18.30
2023-06-04T08:39:37.438Z,18.40
2023-06-04T08:42:13.113Z,18.40
2023-06-04T08:44:40.813Z,18.40
2023-06-04T08:47:10.066Z,18.50
2023-06-04T08:49:37.905Z,18.50
2023-06-04T08:52:05.527Z,18.50
2023-06-04T08:54:33.739Z,18.50
2023-06-04T08:57:02.627Z,18.60
2023-06-04T08:59:29.919Z,18.60
2023-06-04T09:01:57.788Z,18.60
2023-06-04T09:04:25.724Z,18.70
2023-06-04T09:06:55.000Z,18.70
2023-06-04T09:09:24.901Z,18.70
2023-06-04T09:12:00.650Z,18.70
2023-06-04T09:14:28.017Z,18.80
2023-06-04T09:16:56.808Z,18.80
2023-06-04T09:19:24.870Z,18.80
2023-06-04T09:21:54.261Z,18.90
2023-06-04T09:24:23.445Z,18.90
2023-06-04T09:26:51.529Z,18.90
2023-06-04T09:29:19.727Z,18.90
2023-06-04T09:31:50.749Z,19.00
2023-06-04T09:34:29.308Z,19.00
2023-06-04T09:36:57.923Z,19.00
2023-06-04T09:39:25.319Z,19.10
2023-06-04T09:42:03.011Z,19.10
2023-06-04T09:44:31.485Z,19.10
2023-06-04T09:46:59.794Z,19.10
2023-06-04T09:49:27.236Z,19.10
2023-06-04T09:51:54.693Z,19.20
2023-06-04T09:54:22.001Z,19.20
2023-06-04T09:56:49.404Z,19.20
2023-06-04T09:59:17.590Z,19.20
2023-06-04T10:01:45.741Z,19.20
2023-06-04T10:04:15.349Z,19.20
2023-06-04T10:06:43.074Z,19.30
2023-06-04T10:09:10.869Z,19.30
2023-06-04T10:12:01.249Z,19.30
2023-06-04T10:14:42.500Z,19.40
2023-06-04T10:17:12.878Z,19.40
2023-06-04T10:19:44.663Z,19.40
2023-06-04T10:22:15.613Z,19.40
2023-06-04T10:24:44.617Z,19.40
2023-06-04T10:27:15.168Z,19.40
2023-06-04T10:29:44.183Z,19.50
2023-06-04T10:32:11.884Z,19.40
2023-06-04T10:34:39.606Z,19.40
2023-06-04T10:37:07.499Z,19.40
2023-06-04T10:39:34.842Z,19.40
2023-06-04T10:42:09.313Z,19.50
2023-06-04T10:44:47.665Z,19.50
2023-06-04T10:47:26.437Z,19.50
2023-06-04T10:49:55.628Z,19.50
2023-06-04T10:52:23.600Z,19.50
2023-06-04T10:54:52.883Z,19.60
2023-06-04T10:57:20.931Z,19.60
2023-06-04T10:59:58.596Z,19.60
2023-06-04T11:02:26.892Z,19.60
2023-06-04T11:05:10.080Z,19.60
2023-06-04T11:07:51.315Z,19.60
2023-06-04T11:10:19.242Z,19.70
2023-06-04T11:12:54.104Z,19.70
2023-06-04T11:15:21.702Z,19.70
2023-06-04T11:17:59.638Z,19.70
2023-06-04T11:20:27.239Z,19.70
2023-06-04T11:22:59.553Z,19.70
2023-06-04T11:25:27.833Z,19.70
2023-06-04T11:27:56.689Z,19.80
2023-06-04T11:30:24.854Z,19.80
2023-06-04T11:33:00.875Z,19.80
2023-06-04T11:35:28.441Z,19.80
2023-06-04T11:37:57.634Z,19.90
2023-06-04T11:40:28.073Z,19.90
2023-06-04T11:42:57.104Z,19.90
2023-06-04T11:45:25.133Z,19.90
2023-06-04T11:47:57.230Z,19.90
2023-06-04T11:50:28.439Z,19.90
2023-06-04T11:52:56.342Z,20.00
2023-06-04T11:55:24.314Z,20.00
2023-06-04T11:57:52.328Z,20.00
2023-06-04T12:00:20.557Z,20.00
2023-06-04T12:02:53.414Z,20.00
2023-06-04T12:05:24.334Z,20.00
2023-06-04T12:07:52.862Z,20.10
2023-06-04T12:10:21.778Z,20.10
2023-06-04T12:12:58.287Z,20.10
2023-06-04T12:15:25.880Z,20.10
2023-06-04T12:17:56.221Z,20.10
2023-06-04T12:20:37.645Z,20.10
2023-06-04T12:23:07.375Z,20.10
2023-06-04T12:25:38.888Z,20.10
2023-06-04T12:28:06.876Z,20.10
2023-06-04T12:30:41.714Z,20.10
2023-06-04T12:33:09.337Z,20.10
2023-06-04T12:35:36.846Z,20.10
2023-06-04T12:38:05.993Z,20.10
2023-06-04T12:40:33.490Z,20.10
2023-06-04T12:43:01.246Z,20.10
2023-06-04T12:45:28.803Z,20.20
2023-06-04T12:47:56.475Z,20.10
2023-06-04T12:50:23.795Z,20.10
2023-06-04T12:52:51.447Z,20.10
2023-06-04T12:55:19.192Z,20.10
2023-06-04T12:57:50.195Z,20.10
2023-06-04T13:00:18.018Z,20.10
2023-06-04T13:02:45.489Z,20.10
2023-06-04T13:05:12.868Z,20.10
2023-06-04T13:07:41.899Z,20.10
2023-06-04T13:10:09.781Z,20.20
2023-06-04T13:12:37.692Z,20.10
2023-06-04T13:15:05.596Z,20.20
2023-06-04T13:17:33.898Z,20.20
2023-06-04T13:20:01.230Z,20.20
2023-06-04T13:22:28.642Z,20.20
2023-06-04T13:24:56.204Z,20.10
2023-06-04T13:27:23.455Z,20.20
2023-06-04T13:29:50.674Z,20.10
2023-06-04T13:32:18.041Z,20.20
2023-06-04T13:34:45.395Z,20.10
2023-06-04T13:37:13.927Z,20.20
2023-06-04T13:39:41.329Z,20.20
2023-06-04T13:42:08.676Z,20.20
2023-06-04T13:44:36.024Z,20.20
2023-06-04T13:47:04.853Z,20.20
2023-06-04T13:49:35.948Z,20.20
2023-06-04T13:52:03.408Z,20.20
2023-06-04T13:54:30.909Z,20.20
2023-06-04T13:56:58.460Z,20.20
2023-06-04T13:59:25.773Z,20.20
2023-06-04T14:01:53.240Z,20.20
2023-06-04T14:04:20.928Z,20.20
2023-06-04T14:06:48.397Z,20.20
2023-06-04T14:09:16.552Z,20.20
2023-06-04T14:11:43.963Z,20.10
2023-06-04T14:14:11.977Z,20.20
2023-06-04T14:16:39.304Z,20.20
2023-06-04T14:19:07.040Z,20.20
2023-06-04T14:21:34.278Z,20.10
2023-06-04T14:24:01.817Z,20.10
2023-06-04T14:26:30.095Z,20.10
2023-06-04T14:28:58.130Z,20.10
2023-06-04T14:31:25.618Z,20.10
2023-06-04T14:33:52.943Z,20.10
2023-06-04T14:36:20.549Z,20.10
2023-06-04T14:38:49.462Z,20.10
2023-06-04T14:41:16.907Z,20.10
2023-06-04T14:43:44.334Z,20.10
2023-06-04T14:46:11.987Z,20.10
2023-06-04T14:48:39.491Z,20.10
2023-06-04T14:51:08.757Z,20.20
2023-06-04T14:53:36.656Z,20.20
2023-06-04T14:56:04.020Z,20.20
2023-06-04T14:58:34.081Z,20.20
2023-06-04T15:01:04.967Z,20.10
2023-06-04T15:03:32.481Z,20.20
2023-06-04T15:06:10.567Z,20.20
2023-06-04T15:08:45.403Z,20.20
2023-06-04T15:11:12.936Z,20.20
2023-06-04T15:13:40.258Z,20.20
2023-06-04T15:16:07.650Z,20.20
2023-06-04T15:18:35.367Z,20.20
2023-06-04T15:21:02.705Z,20.20
2023-06-04T15:23:30.161Z,20.30
2023-06-04T15:25:57.568Z,20.30
2023-06-04T15:28:25.036Z,20.30
2023-06-04T15:30:52.423Z,20.30
2023-06-04T15:33:19.876Z,20.30
2023-06-04T15:35:47.383Z,20.20
2023-06-04T15:38:14.783Z,20.30
2023-06-04T15:40:42.170Z,20.20
2023-06-04T15:43:09.542Z,20.20
2023-06-04T15:45:36.888Z,20.20
2023-06-04T15:48:04.461Z,20.20
2023-06-04T15:50:31.868Z,20.10
2023-06-04T15:52:59.314Z,20.10
2023-06-04T15:55:26.803Z,20.10
2023-06-04T15:57:54.407Z,20.10
2023-06-04T16:00:22.115Z,20.00
2023-06-04T16:02:49.458Z,20.00
2023-06-04T16:05:17.717Z,20.00
2023-06-04T16:07:49.002Z,20.00
2023-06-04T16:10:21.366Z,20.00
2023-06-04T16:12:53.932Z,20.00
2023-06-04T16:15:22.658Z,20.00
2023-06-04T16:17:56.722Z,20.00
2023-06-04T16:20:26.848Z,19.90
2023-06-04T16:22:55.212Z,19.90
2023-06-04T16:25:26.180Z,19.90
2023-06-04T16:27:55.831Z,19.90
2023-06-04T16:30:24.615Z,19.90
2023-06-04T16:32:57.947Z,19.90
2023-06-04T16:35:26.958Z,19.90
2023-06-04T16:37:55.821Z,19.80
2023-06-04T16:40:26.722Z,19.80
2023-06-04T16:42:58.149Z,19.70
2023-06-04T16:45:27.645Z,19.60
2023-06-04T16:47:56.699Z,19.60
2023-06-04T16:50:24.510Z,19.50
2023-06-04T16:52:52.497Z,19.50
2023-06-04T16:55:20.298Z,19.50
2023-06-04T16:57:48.692Z,19.50
2023-06-04T17:00:26.687Z,19.40
2023-06-04T17:03:05.484Z,19.40
2023-06-04T17:05:43.592Z,19.30
2023-06-04T17:08:11.304Z,19.30
2023-06-04T17:10:39.132Z,19.30
2023-06-04T17:13:07.511Z,19.20
2023-06-04T17:15:39.001Z,19.20
2023-06-04T17:18:11.739Z,19.20
2023-06-04T17:20:39.915Z,19.10
2023-06-04T17:23:21.480Z,19.10
2023-06-04T17:25:49.351Z,19.00
2023-06-04T17:28:16.966Z,19.00
2023-06-04T17:30:44.980Z,18.90
2023-06-04T17:33:12.616Z,18.90
2023-06-04T17:35:39.991Z,18.80
2023-06-04T17:38:10.666Z,18.80
2023-06-04T17:40:39.746Z,18.70
2023-06-04T17:43:07.132Z,18.70
2023-06-04T17:45:34.587Z,18.60
2023-06-04T17:48:02.051Z,18.60
2023-06-04T17:50:29.533Z,18.50
2023-06-04T17:52:58.050Z,18.50
2023-06-04T17:55:27.335Z,18.40
2023-06-04T17:57:56.817Z,18.30
2023-06-04T18:00:25.779Z,18.20
2023-06-04T18:02:52.972Z,18.10
2023-06-04T18:05:20.445Z,18.00
2023-06-04T18:07:48.150Z,17.90
2023-06-04T18:10:15.635Z,17.80
2023-06-04T18:12:46.862Z,17.70
2023-06-04T18:15:15.728Z,17.60
2023-06-04T18:17:43.377Z,17.60
2023-06-04T18:20:11.973Z,17.50
2023-06-04T18:22:39.748Z,17.40
2023-06-04T18:25:09.196Z,17.30
2023-06-04T18:27:37.643Z,17.20
2023-06-04T18:30:06.250Z,17.20
2023-06-04T18:32:34.133Z,17.10
2023-06-04T18:35:01.686Z,17.10
2023-06-04T18:37:29.069Z,17.00
2023-06-04T18:39:56.398Z,16.90
2023-06-04T18:42:30.632Z,16.80
2023-06-04T18:45:00.718Z,16.80
2023-06-04T18:47:29.750Z,16.70
2023-06-04T18:49:57.528Z,16.70
2023-06-04T18:52:24.996Z,16.60
2023-06-04T18:54:52.520Z,16.60
2023-06-04T18:57:19.958Z,16.50
2023-06-04T18:59:47.363Z,16.40
2023-06-04T19:02:15.356Z,16.40
2023-06-04T19:04:42.733Z,16.30
2023-06-04T19:07:10.270Z,16.30
2023-06-04T19:09:37.777Z,16.20
2023-06-04T19:12:05.307Z,16.20
2023-06-04T19:14:32.669Z,16.10
2023-06-04T19:17:02.919Z,16.10
2023-06-04T19:19:30.220Z,16.00
2023-06-04T19:21:59.412Z,16.00
2023-06-04T19:24:26.828Z,15.90
2023-06-04T19:26:54.165Z,15.90
2023-06-04T19:29:21.512Z,15.90
2023-06-04T19:31:49.029Z,15.80
2023-06-04T19:34:17.023Z,15.70
2023-06-04T19:36:44.523Z,15.70
2023-06-04T19:39:11.892Z,15.60
2023-06-04T19:41:39.178Z,15.60
2023-06-04T19:44:06.588Z,15.60
2023-06-04T19:46:33.921Z,15.50
2023-06-04T19:49:02.397Z,15.50
2023-06-04T19:51:29.748Z,15.50
2023-06-04T19:53:57.220Z,15.40
2023-06-04T19:56:24.644Z,15.40
2023-06-04T19:58:52.659Z,15.40
2023-06-04T20:01:20.154Z,15.40
2023-06-04T20:03:47.647Z,15.30
2023-06-04T20:06:14.991Z,15.30
2023-06-04T20:08:42.712Z,15.30
2023-06-04T20:11:11.277Z,15.30
2023-06-04T20:13:38.660Z,15.30
2023-06-04T20:16:06.340Z,15.30
2023-06-04T20:18:34.493Z,15.30
2023-06-04T20:21:01.879Z,15.30
2023-06-04T20:23:29.288Z,15.30
2023-06-04T20:26:00.293Z,15.30
2023-06-04T20:28:31.110Z,15.30
2023-06-04T20:30:58.576Z,15.30
2023-06-04T20:33:27.867Z,15.30
2023-06-04T20:35:55.435Z,15.30
2023-06-04T20:38:22.906Z,15.30
2023-06-04T20:40:50.328Z,15.30
2023-06-04T20:43:19.037Z,15.30
2023-06-04T20:45:46.546Z,15.30
2023-06-04T20:48:13.929Z,15.30
2023-06-04T20:50:41.417Z,15.30
2023-06-04T20:53:08.734Z,15.30
2023-06-04T20:55:36.585Z,15.30
2023-06-04T20:58:04.078Z,15.30
2023-06-04T21:00:32.723Z,15.20
2023-06-04T21:03:00.053Z,15.20
2023-06-04T21:05:27.413Z,15.20
2023-06-04T21:07:59.750Z,15.20
2023-06-04T21:10:28.805Z,15.10
2023-06-04T21:12:56.086Z,15.10
2023-06-04T21:15:23.426Z,15.10
2023-06-04T21:17:50.984Z,15.00
2023-06-04T21:20:19.115Z,15.00
2023-06-04T21:22:46.423Z,15.00
2023-06-04T21:25:13.930Z,15.00
2023-06-04T21:27:41.360Z,15.00
2023-06-04T21:30:09.107Z,15.00
2023-06-04T21:32:36.483Z,15.00
2023-06-04T21:35:04.078Z,15.00
2023-06-04T21:37:31.397Z,15.10
2023-06-04T21:39:58.778Z,15.10
2023-06-04T21:42:26.139Z,15.10
2023-06-04T21:44:53.881Z,15.10
2023-06-04T21:47:21.865Z,15.10
2023-06-04T21:49:49.251Z,15.10
2023-06-04T21:52:25.671Z,15.10
2023-06-04T21:54:53.722Z,15.10
2023-06-04T21:57:21.255Z,15.10
2023-06-04T21:59:48.604Z,15.10
2023-06-04T22:02:16.007Z,15.10
2023-06-04T22:04:43.767Z,15.10
2023-06-04T22:07:11.173Z,15.10
2023-06-04T22:09:38.592Z,15.10
2023-06-04T22:12:06.679Z,15.10
2023-06-04T22:14:34.138Z,15.10
2023-06-04T22:17:01.580Z,15.10
2023-06-04T22:19:28.980Z,15.10
2023-06-04T22:21:56.773Z,15.10
2023-06-04T22:24:24.160Z,15.20
2023-06-04T22:26:51.780Z,15.20
2023-06-04T22:29:20.710Z,15.20
2023-06-04T22:31:48.323Z,15.20
2023-06-04T22:34:15.790Z,15.20
2023-06-04T22:36:45.655Z,15.20
2023-06-04T22:39:13.188Z,15.30
2023-06-04T22:41:40.626Z,15.30
2023-06-04T22:44:07.940Z,15.30
2023-06-04T22:46:35.332Z,15.30
2023-06-04T22:49:02.778Z,15.30
2023-06-04T22:51:30.255Z,15.40
2023-06-04T22:53:57.630Z,15.30
2023-06-04T22:56:24.932Z,15.30
2023-06-04T22:58:52.429Z,15.40
2023-06-04T23:01:20.212Z,15.40
2023-06-04T23:03:47.837Z,15.40
2023-06-04T23:06:15.441Z,15.40
2023-06-04T23:08:42.986Z,15.40
2023-06-04T23:11:10.494Z,15.40
2023-06-04T23:13:37.960Z,15.40
2023-06-04T23:16:05.919Z,15.40
2023-06-04T23:18:33.838Z,15.40
2023-06-04T23:21:01.194Z,15.40
2023-06-04T23:23:28.644Z,15.40
2023-06-04T23:25:56.122Z,15.40
2023-06-04T23:28:23.508Z,15.40
2023-06-04T23:30:50.844Z,15.40
2023-06-04T23:33:18.136Z,15.40
2023-06-04T23:35:45.598Z,15.40
2023-06-04T23:38:13.451Z,15.40
2023-06-04T23:40:41.355Z,15.40
2023-06-04T23:43:08.713Z,15.40
2023-06-04T23:45:36.016Z,15.40
2023-06-04T23:48:03.384Z,15.40
2023-06-04T23:50:30.851Z,15.40
2023-06-04T23:52:58.160Z,15.40
2023-06-04T23:55:25.531Z,15.40
2023-06-04T23:57:53.046Z,15.40
